Terminal Aerodrome Forecast
Issued by NWS

Home | Current Version | Previous Version | Text Only | Print | Product List | Glossary On
Versions: 1 2 3 4 5 6 7 8 9 10 11 12 13 14 15 16 17 18 19 20 21 22 23 24 25 26 27 28 29 30 31 32 33 34 35 36 37
000
FTUS45 KGJT 221138
TAFVEL
TAF
KVEL 221138Z 2212/2312 VRB04KT P6SM FEW100 BKN200
     FM221800 20006KT P6SM SCT100 BKN150
     FM230200 32006KT P6SM -RA SCT050 OVC070=

USA.gov is the U.S. government's official web portal to all federal, state and local government web resources and services.